sensor_id;sensor_type;location;lat;lon;timestamp;pressure;altitude;pressure_sealevel;temperature;humidity
7524;BME280;3803;51.666;7.630;2024-02-21T00:00:00;101644.22;;;13.68;49.15
7524;BME280;3803;51.666;7.630;2024-02-21T00:00:26;101643.59;;;13.77;48.92
7524;BME280;3803;51.666;7.630;2024-02-21T00:00:54;101664.00;;;13.87;48.84
7524;BME280;3803;51.666;7.630;2024-02-21T00:01:18;101657.78;;;13.83;49.08
7524;BME280;3803;51.666;7.630;2024-02-21T00:01:46;101655.69;;;13.71;49.02
7524;BME280;3803;51.666;7.630;2024-02-21T00:02:25;101657.56;;;13.76;49.30
7524;BME280;3803;51.666;7.630;2024-02-21T00:02:54;101651.28;;;13.70;48.98
7524;BME280;3803;51.666;7.630;2024-02-21T00:03:45;101655.59;;;13.68;49.06
7524;BME280;3803;51.666;7.630;2024-02-21T00:04:31;101663.56;;;13.71;49.30
7524;BME280;3803;51.666;7.630;2024-02-21T00:05:04;101667.75;;;13.65;49.39
7524;BME280;3803;51.666;7.630;2024-02-21T00:05:30;101663.47;;;13.68;48.98
7524;BME280;3803;51.666;7.630;2024-02-21T00:05:51;101670.44;;;13.68;49.07
7524;BME280;3803;51.666;7.630;2024-02-21T00:06:12;101670.69;;;13.76;49.37
7524;BME280;3803;51.666;7.630;2024-02-21T00:06:33;101670.44;;;13.68;49.05
7524;BME280;3803;51.666;7.630;2024-02-21T00:07:03;101645.78;;;13.61;49.18
7524;BME280;3803;51.666;7.630;2024-02-21T00:07:49;101665.59;;;13.82;49.03
7524;BME280;3803;51.666;7.630;2024-02-21T00:11:10;101640.97;;;13.77;49.11
7524;BME280;3803;51.666;7.630;2024-02-21T00:11:46;101646.22;;;13.77;49.12
7524;BME280;3803;51.666;7.630;2024-02-21T00:12:10;101647.94;;;13.75;49.06
7524;BME280;3803;51.666;7.630;2024-02-21T00:23:14;101638.78;;;13.92;49.10
7524;BME280;3803;51.666;7.630;2024-02-21T00:24:48;101631.91;;;13.65;49.15
7524;BME280;3803;51.666;7.630;2024-02-21T00:25:20;101624.84;;;13.63;49.55
7524;BME280;3803;51.666;7.630;2024-02-21T00:25:51;101626.78;;;13.70;49.23
7524;BME280;3803;51.666;7.630;2024-02-21T00:26:15;101614.38;;;13.64;49.01
7524;BME280;3803;51.666;7.630;2024-02-21T00:26:45;101636.78;;;13.83;49.29
7524;BME280;3803;51.666;7.630;2024-02-21T00:27:26;101628.91;;;13.83;48.92
7524;BME280;3803;51.666;7.630;2024-02-21T00:28:05;101620.25;;;13.86;49.10
7524;BME280;3803;51.666;7.630;2024-02-21T00:28:35;101625.41;;;13.83;49.01
7524;BME280;3803;51.666;7.630;2024-02-21T00:29:04;101621.00;;;13.82;48.92
7524;BME280;3803;51.666;7.630;2024-02-21T00:29:41;101601.75;;;13.81;49.05
7524;BME280;3803;51.666;7.630;2024-02-21T00:30:08;101622.09;;;13.90;49.17
7524;BME280;3803;51.666;7.630;2024-02-21T00:30:34;101605.09;;;13.76;49.17
7524;BME280;3803;51.666;7.630;2024-02-21T00:31:15;101613.19;;;13.83;48.90
7524;BME280;3803;51.666;7.630;2024-02-21T00:31:44;101614.94;;;13.83;49.13
7524;BME280;3803;51.666;7.630;2024-02-21T00:36:33;101593.09;;;13.85;48.86
7524;BME280;3803;51.666;7.630;2024-02-21T00:36:54;101605.53;;;13.91;48.98
7524;BME280;3803;51.666;7.630;2024-02-21T00:37:15;101601.09;;;13.90;48.77
7524;BME280;3803;51.666;7.630;2024-02-21T00:37:44;101605.34;;;13.85;48.77
7524;BME280;3803;51.666;7.630;2024-02-21T00:38:05;101591.25;;;13.81;48.84
7524;BME280;3803;51.666;7.630;2024-02-21T00:38:47;101609.50;;;13.77;49.18
7524;BME280;3803;51.666;7.630;2024-02-21T00:39:29;101590.03;;;13.68;48.79
7524;BME280;3803;51.666;7.630;2024-02-21T00:39:49;101602.47;;;13.76;49.03
7524;BME280;3803;51.666;7.630;2024-02-21T00:44:02;101611.53;;;13.87;49.07
7524;BME280;3803;51.666;7.630;2024-02-21T00:59:07;101588.50;;;13.77;48.94
7524;BME280;3803;51.666;7.630;2024-02-21T00:59:53;101588.75;;;13.86;49.09
7524;BME280;3803;51.666;7.630;2024-02-21T01:07:32;101561.94;;;13.64;49.22
7524;BME280;3803;51.666;7.630;2024-02-21T01:07:53;101570.81;;;13.69;49.48
7524;BME280;3803;51.666;7.630;2024-02-21T01:08:28;101550.75;;;13.71;49.19
7524;BME280;3803;51.666;7.630;2024-02-21T01:13:08;101572.91;;;13.81;49.20
7524;BME280;3803;51.666;7.630;2024-02-21T01:13:50;101553.63;;;13.81;48.90
7524;BME280;3803;51.666;7.630;2024-02-21T01:15:08;101548.25;;;13.76;49.01
7524;BME280;3803;51.666;7.630;2024-02-21T01:16:02;101557.91;;;13.77;49.17
7524;BME280;3803;51.666;7.630;2024-02-21T01:16:36;101556.13;;;13.75;49.24
7524;BME280;3803;51.666;7.630;2024-02-21T01:17:00;101540.22;;;13.70;49.28
7524;BME280;3803;51.666;7.630;2024-02-21T01:18:02;101560.66;;;13.82;49.04
7524;BME280;3803;51.666;7.630;2024-02-21T01:19:13;101553.31;;;13.68;49.39
7524;BME280;3803;51.666;7.630;2024-02-21T01:19:55;101565.66;;;13.73;49.33
7524;BME280;3803;51.666;7.630;2024-02-21T01:20:39;101552.22;;;13.60;49.40
7524;BME280;3803;51.666;7.630;2024-02-21T01:21:22;101554.97;;;13.66;49.28
7524;BME280;3803;51.666;7.630;2024-02-21T01:22:32;101548.25;;;13.75;48.97
7524;BME280;3803;51.666;7.630;2024-02-21T01:29:04;101546.44;;;13.74;49.26
7524;BME280;3803;51.666;7.630;2024-02-21T01:36:19;101525.03;;;13.58;49.32
7524;BME280;3803;51.666;7.630;2024-02-21T01:37:03;101517.16;;;13.58;49.42
7524;BME280;3803;51.666;7.630;2024-02-21T01:37:32;101510.28;;;13.62;49.42
7524;BME280;3803;51.666;7.630;2024-02-21T01:44:18;101532.91;;;13.58;49.61
7524;BME280;3803;51.666;7.630;2024-02-21T01:45:18;101522.34;;;13.55;49.10
7524;BME280;3803;51.666;7.630;2024-02-21T01:49:44;101519.09;;;13.64;49.35
7524;BME280;3803;51.666;7.630;2024-02-21T01:56:00;101510.69;;;13.77;49.24
7524;BME280;3803;51.666;7.630;2024-02-21T01:57:00;101516.75;;;13.75;49.14
7524;BME280;3803;51.666;7.630;2024-02-21T02:03:25;101523.66;;;13.71;49.19
7524;BME280;3803;51.666;7.630;2024-02-21T02:04:14;101511.22;;;13.64;49.30
7524;BME280;3803;51.666;7.630;2024-02-21T02:08:58;101532.31;;;13.68;49.40
7524;BME280;3803;51.666;7.630;2024-02-21T02:09:31;101532.22;;;13.65;49.19
7524;BME280;3803;51.666;7.630;2024-02-21T02:10:22;101500.75;;;13.65;49.09
7524;BME280;3803;51.666;7.630;2024-02-21T02:10:52;101490.19;;;13.62;49.27
7524;BME280;3803;51.666;7.630;2024-02-21T02:11:21;101497.38;;;13.69;49.33
7524;BME280;3803;51.666;7.630;2024-02-21T02:17:22;101507.25;;;13.80;48.85
7524;BME280;3803;51.666;7.630;2024-02-21T02:17:43;101498.47;;;13.78;49.17
7524;BME280;3803;51.666;7.630;2024-02-21T02:18:20;101497.69;;;13.82;49.08
7524;BME280;3803;51.666;7.630;2024-02-21T02:18:49;101485.41;;;13.79;49.12
7524;BME280;3803;51.666;7.630;2024-02-21T02:19:15;101494.06;;;13.77;49.24
7524;BME280;3803;51.666;7.630;2024-02-21T02:19:48;101492.38;;;13.79;48.90
7524;BME280;3803;51.666;7.630;2024-02-21T02:20:51;101474.69;;;13.71;49.03
7524;BME280;3803;51.666;7.630;2024-02-21T02:25:52;101485.28;;;13.75;49.13
7524;BME280;3803;51.666;7.630;2024-02-21T02:26:13;101479.78;;;13.65;48.96
7524;BME280;3803;51.666;7.630;2024-02-21T02:26:34;101478.09;;;13.67;49.26
7524;BME280;3803;51.666;7.630;2024-02-21T02:27:04;101478.09;;;13.67;48.98
7524;BME280;3803;51.666;7.630;2024-02-21T02:27:26;101468.53;;;13.69;49.12
7524;BME280;3803;51.666;7.630;2024-02-21T02:27:50;101493.38;;;13.84;49.17
7524;BME280;3803;51.666;7.630;2024-02-21T02:28:39;101476.44;;;13.71;49.16
7524;BME280;3803;51.666;7.630;2024-02-21T02:29:03;101468.53;;;13.69;49.13
7524;BME280;3803;51.666;7.630;2024-02-21T02:29:26;101473.88;;;13.74;49.20
7524;BME280;3803;51.666;7.630;2024-02-21T02:29:47;101478.34;;;13.77;49.25
7524;BME280;3803;51.666;7.630;2024-02-21T02:30:08;101469.38;;;13.68;48.98
7524;BME280;3803;51.666;7.630;2024-02-21T02:30:48;101477.41;;;13.75;49.16
7524;BME280;3803;51.666;7.630;2024-02-21T02:31:32;101476.56;;;13.76;49.05
7524;BME280;3803;51.666;7.630;2024-02-21T02:36:16;101455.28;;;13.65;49.25
7524;BME280;3803;51.666;7.630;2024-02-21T02:37:17;101465.97;;;13.73;49.09
7524;BME280;3803;51.666;7.630;2024-02-21T02:42:17;101454.78;;;13.80;48.95
7524;BME280;3803;51.666;7.630;2024-02-21T02:42:38;101448.47;;;13.71;48.88
7524;BME280;3803;51.666;7.630;2024-02-21T02:43:21;101451.03;;;13.68;48.92
7524;BME280;3803;51.666;7.630;2024-02-21T02:48:08;101447.50;;;13.68;49.21
7524;BME280;3803;51.666;7.630;2024-02-21T02:53:46;101413.69;;;13.45;48.84
7524;BME280;3803;51.666;7.630;2024-02-21T02:54:07;101412.47;;;13.32;49.46
7524;BME280;3803;51.666;7.630;2024-02-21T02:54:28;101412.47;;;13.32;49.48
7524;BME280;3803;51.666;7.630;2024-02-21T02:54:54;101407.16;;;13.29;49.25
7524;BME280;3803;51.666;7.630;2024-02-21T02:55:34;101408.88;;;13.27;49.30
7524;BME280;3803;51.666;7.630;2024-02-21T02:56:15;101419.25;;;13.24;49.33
7524;BME280;3803;51.666;7.630;2024-02-21T02:57:11;101426.25;;;13.25;49.50
7524;BME280;3803;51.666;7.630;2024-02-21T02:58:08;101415.69;;;13.22;49.42
7524;BME280;3803;51.666;7.630;2024-02-21T02:59:26;101422.09;;;13.32;49.69
7524;BME280;3803;51.666;7.630;2024-02-21T03:01:23;101424.84;;;13.36;49.57
7524;BME280;3803;51.666;7.630;2024-02-21T03:01:51;101427.28;;;13.30;49.28
7524;BME280;3803;51.666;7.630;2024-02-21T03:02:14;101414.22;;;13.32;49.41
7524;BME280;3803;51.666;7.630;2024-02-21T03:02:35;101398.94;;;13.16;49.21
7524;BME280;3803;51.666;7.630;2024-02-21T03:03:03;101404.06;;;13.12;49.50
7524;BME280;3803;51.666;7.630;2024-02-21T03:03:42;101408.59;;;13.18;49.49
7524;BME280;3803;51.666;7.630;2024-02-21T03:04:28;101406.63;;;13.10;49.47
7524;BME280;3803;51.666;7.630;2024-02-21T03:05:17;101410.97;;;13.08;49.37
7524;BME280;3803;51.666;7.630;2024-02-21T03:06:32;101399.00;;;12.87;50.08
7524;BME280;3803;51.666;7.630;2024-02-21T03:07:15;101399.38;;;13.00;49.86
7524;BME280;3803;51.666;7.630;2024-02-21T03:08:06;101407.19;;;12.98;49.75
7524;BME280;3803;51.666;7.630;2024-02-21T03:12:56;101403.88;;;12.75;50.37
7524;BME280;3803;51.666;7.630;2024-02-21T03:13:29;101391.44;;;12.68;50.66
7524;BME280;3803;51.666;7.630;2024-02-21T03:13:59;101385.38;;;12.69;50.33
7524;BME280;3803;51.666;7.630;2024-02-21T03:14:23;101397.13;;;12.83;50.30
7524;BME280;3803;51.666;7.630;2024-02-21T03:19:52;101399.94;;;12.91;50.23
7524;BME280;3803;51.666;7.630;2024-02-21T03:21:00;101411.16;;;12.85;50.60
7524;BME280;3803;51.666;7.630;2024-02-21T03:21:50;101393.59;;;12.81;50.36
7524;BME280;3803;51.666;7.630;2024-02-21T03:22:38;101387.06;;;12.67;50.94
7524;BME280;3803;51.666;7.630;2024-02-21T03:23:18;101394.44;;;12.80;50.77
7524;BME280;3803;51.666;7.630;2024-02-21T03:23:42;101388.22;;;12.77;50.52
7524;BME280;3803;51.666;7.630;2024-02-21T03:29:00;101390.97;;;12.81;50.67
7524;BME280;3803;51.666;7.630;2024-02-21T03:29:23;101368.72;;;12.67;50.86
7524;BME280;3803;51.666;7.630;2024-02-21T03:34:23;101390.72;;;12.73;51.01
7524;BME280;3803;51.666;7.630;2024-02-21T03:39:24;101393.84;;;12.91;50.68
7524;BME280;3803;51.666;7.630;2024-02-21T03:39:45;101415.31;;;13.08;50.64
7524;BME280;3803;51.666;7.630;2024-02-21T03:40:09;101399.44;;;13.03;50.43
7524;BME280;3803;51.666;7.630;2024-02-21T03:43:38;101388.41;;;13.13;50.36
7524;BME280;3803;51.666;7.630;2024-02-21T03:46:24;101376.25;;;13.17;50.49
7524;BME280;3803;51.666;7.630;2024-02-21T03:47:06;101404.78;;;13.38;50.11
7524;BME280;3803;51.666;7.630;2024-02-21T03:47:51;101393.09;;;13.25;50.13
7524;BME280;3803;51.666;7.630;2024-02-21T03:48:17;101386.09;;;13.26;50.28
7524;BME280;3803;51.666;7.630;2024-02-21T03:48:44;101379.06;;;13.25;50.24
7524;BME280;3803;51.666;7.630;2024-02-21T03:49:23;101400.16;;;13.28;50.10
7524;BME280;3803;51.666;7.630;2024-02-21T03:50:02;101391.25;;;13.23;50.49
7524;BME280;3803;51.666;7.630;2024-02-21T03:50:31;101374.75;;;13.25;50.47
7524;BME280;3803;51.666;7.630;2024-02-21T03:51:16;101410.94;;;13.40;50.07
7524;BME280;3803;51.666;7.630;2024-02-21T03:51:58;101400.56;;;13.43;49.94
7524;BME280;3803;51.666;7.630;2024-02-21T03:52:39;101381.13;;;13.35;49.89
7524;BME280;3803;51.666;7.630;2024-02-21T03:53:16;101391.44;;;13.30;50.17
7524;BME280;3803;51.666;7.630;2024-02-21T03:53:40;101389.56;;;13.25;50.17
7524;BME280;3803;51.666;7.630;2024-02-21T03:54:20;101401.38;;;13.42;50.45
7524;BME280;3803;51.666;7.630;2024-02-21T03:54:45;101397.94;;;13.43;49.76
7524;BME280;3803;51.666;7.630;2024-02-21T03:55:14;101384.66;;;13.37;50.06
7524;BME280;3803;51.666;7.630;2024-02-21T03:55:50;101384.66;;;13.37;49.84
7524;BME280;3803;51.666;7.630;2024-02-21T03:56:20;101385.50;;;13.36;49.82
7524;BME280;3803;51.666;7.630;2024-02-21T03:57:01;101389.16;;;13.43;50.04
7524;BME280;3803;51.666;7.630;2024-02-21T03:58:22;101388.13;;;13.36;49.90
7524;BME280;3803;51.666;7.630;2024-02-21T03:58:53;101409.41;;;13.49;49.86
7524;BME280;3803;51.666;7.630;2024-02-21T03:59:30;101395.44;;;13.48;50.01
7524;BME280;3803;51.666;7.630;2024-02-21T03:59:51;101387.50;;;13.47;50.06
7524;BME280;3803;51.666;7.630;2024-02-21T04:00:34;101395.31;;;13.43;49.82
7524;BME280;3803;51.666;7.630;2024-02-21T04:01:03;101407.75;;;13.51;49.78
7524;BME280;3803;51.666;7.630;2024-02-21T04:10:01;101408.72;;;13.56;49.98
7524;BME280;3803;51.666;7.630;2024-02-21T04:10:22;101397.25;;;13.52;49.63
7524;BME280;3803;51.666;7.630;2024-02-21T04:10:43;101407.75;;;13.51;49.86
7524;BME280;3803;51.666;7.630;2024-02-21T04:11:06;101403.53;;;13.57;49.76
7524;BME280;3803;51.666;7.630;2024-02-21T04:11:27;101395.72;;;13.59;49.81
7524;BME280;3803;51.666;7.630;2024-02-21T04:11:48;101401.94;;;13.64;49.53
7524;BME280;3803;51.666;7.630;2024-02-21T04:12:17;101417.88;;;13.72;49.88
7524;BME280;3803;51.666;7.630;2024-02-21T04:12:47;101415.22;;;13.70;49.65
7524;BME280;3803;51.666;7.630;2024-02-21T04:13:18;101421.47;;;13.76;49.54
7524;BME280;3803;51.666;7.630;2024-02-21T04:13:47;101408.25;;;13.73;49.36
7524;BME280;3803;51.666;7.630;2024-02-21T04:14:17;101395.81;;;13.64;49.65
7524;BME280;3803;51.666;7.630;2024-02-21T04:14:44;101402.78;;;13.63;49.64
7524;BME280;3803;51.666;7.630;2024-02-21T04:15:21;101394.88;;;13.62;49.55
7524;BME280;3803;51.666;7.630;2024-02-21T04:21:03;101391.53;;;13.67;49.66
7524;BME280;3803;51.666;7.630;2024-02-21T04:21:26;101387.78;;;13.57;49.56
7524;BME280;3803;51.666;7.630;2024-02-21T04:21:47;101401.19;;;13.68;49.83
7524;BME280;3803;51.666;7.630;2024-02-21T04:22:08;101402.84;;;13.66;49.66
7524;BME280;3803;51.666;7.630;2024-02-21T04:22:52;101394.16;;;13.67;49.69
7524;BME280;3803;51.666;7.630;2024-02-21T04:23:13;101396.69;;;13.64;49.75
7524;BME280;3803;51.666;7.630;2024-02-21T04:23:33;101403.66;;;13.62;49.69
7524;BME280;3803;51.666;7.630;2024-02-21T04:23:59;101390.53;;;13.62;49.62
7524;BME280;3803;51.666;7.630;2024-02-21T04:24:22;101399.25;;;13.61;49.76
7524;BME280;3803;51.666;7.630;2024-02-21T04:24:43;101394.75;;;13.57;49.90
7524;BME280;3803;51.666;7.630;2024-02-21T04:25:06;101417.50;;;13.56;49.81
7524;BME280;3803;51.666;7.630;2024-02-21T04:25:35;101383.19;;;13.49;50.09
7524;BME280;3803;51.666;7.630;2024-02-21T04:25:59;101392.06;;;13.54;50.05
7524;BME280;3803;51.666;7.630;2024-02-21T04:26:20;101384.97;;;13.50;49.89
7524;BME280;3803;51.666;7.630;2024-02-21T04:26:49;101392.06;;;13.54;49.90
7524;BME280;3803;51.666;7.630;2024-02-21T04:27:10;101389.16;;;13.43;50.10
7524;BME280;3803;51.666;7.630;2024-02-21T04:27:31;101388.25;;;13.41;49.91
7524;BME280;3803;51.666;7.630;2024-02-21T04:27:56;101405.34;;;13.60;50.11
7524;BME280;3803;51.666;7.630;2024-02-21T04:34:32;101405.38;;;13.62;49.67
7524;BME280;3803;51.666;7.630;2024-02-21T04:35:26;101390.59;;;13.64;49.83
7524;BME280;3803;51.666;7.630;2024-02-21T04:36:18;101391.28;;;13.56;49.69
7524;BME280;3803;51.666;7.630;2024-02-21T04:37:18;101384.28;;;13.57;49.72
7524;BME280;3803;51.666;7.630;2024-02-21T04:38:03;101402.75;;;13.62;49.64
7524;BME280;3803;51.666;7.630;2024-02-21T04:38:46;101397.94;;;13.79;49.59
7524;BME280;3803;51.666;7.630;2024-02-21T04:39:48;101407.22;;;13.66;49.67
7524;BME280;3803;51.666;7.630;2024-02-21T04:41:10;101400.91;;;13.57;49.85
7524;BME280;3803;51.666;7.630;2024-02-21T04:41:52;101389.34;;;13.49;49.82
7524;BME280;3803;51.666;7.630;2024-02-21T04:42:59;101401.81;;;13.60;49.53
7524;BME280;3803;51.666;7.630;2024-02-21T04:43:59;101398.41;;;13.62;49.65
7524;BME280;3803;51.666;7.630;2024-02-21T04:45:01;101391.22;;;13.55;49.66
7524;BME280;3803;51.666;7.630;2024-02-21T04:45:22;101399.94;;;13.54;49.62
7524;BME280;3803;51.666;7.630;2024-02-21T04:45:52;101389.41;;;13.52;49.77
7524;BME280;3803;51.666;7.630;2024-02-21T04:47:54;101389.50;;;13.57;49.56
7524;BME280;3803;51.666;7.630;2024-02-21T04:48:36;101394.06;;;13.64;49.37
7524;BME280;3803;51.666;7.630;2024-02-21T04:49:28;101396.78;;;13.67;49.69
7524;BME280;3803;51.666;7.630;2024-02-21T04:50:28;101396.53;;;13.58;49.28
7524;BME280;3803;51.666;7.630;2024-02-21T04:55:21;101374.78;;;13.62;49.34
7524;BME280;3803;51.666;7.630;2024-02-21T05:00:05;101397.78;;;13.73;49.08
7524;BME280;3803;51.666;7.630;2024-02-21T05:00:27;101400.41;;;13.73;49.06
7524;BME280;3803;51.666;7.630;2024-02-21T05:01:02;101394.16;;;13.67;49.34
7524;BME280;3803;51.666;7.630;2024-02-21T05:01:28;101381.00;;;13.66;49.34
7524;BME280;3803;51.666;7.630;2024-02-21T05:03:27;101386.44;;;13.74;48.97
7524;BME280;3803;51.666;7.630;2024-02-21T05:03:48;101387.28;;;13.73;49.33
7524;BME280;3803;51.666;7.630;2024-02-21T05:04:17;101392.53;;;13.73;49.06
7524;BME280;3803;51.666;7.630;2024-02-21T05:04:38;101379.31;;;13.68;49.00
7524;BME280;3803;51.666;7.630;2024-02-21T05:05:17;101402.38;;;13.81;48.89
7524;BME280;3803;51.666;7.630;2024-02-21T05:05:43;101379.41;;;13.71;49.18
7524;BME280;3803;51.666;7.630;2024-02-21T05:06:06;101382.09;;;13.74;49.15
7524;BME280;3803;51.666;7.630;2024-02-21T05:11:12;101397.28;;;13.88;48.96
7524;BME280;3803;51.666;7.630;2024-02-21T05:11:57;101379.63;;;13.80;48.87
7524;BME280;3803;51.666;7.630;2024-02-21T05:12:46;101364.47;;;13.68;48.96
7524;BME280;3803;51.666;7.630;2024-02-21T05:13:06;101372.28;;;13.67;49.19
7524;BME280;3803;51.666;7.630;2024-02-21T05:15:17;101372.88;;;13.55;49.18
7524;BME280;3803;51.666;7.630;2024-02-21T05:15:38;101386.25;;;13.66;49.08
7524;BME280;3803;51.666;7.630;2024-02-21T05:16:17;101382.03;;;13.73;49.15
7524;BME280;3803;51.666;7.630;2024-02-21T05:17:09;101370.56;;;13.69;48.87
7524;BME280;3803;51.666;7.630;2024-02-21T05:17:30;101384.66;;;13.73;49.20
7524;BME280;3803;51.666;7.630;2024-02-21T05:17:54;101385.66;;;13.78;49.07
7524;BME280;3803;51.666;7.630;2024-02-21T05:18:17;101373.25;;;13.70;48.88
7524;BME280;3803;51.666;7.630;2024-02-21T05:19:59;101380.47;;;13.79;48.74
7524;BME280;3803;51.666;7.630;2024-02-21T05:20:53;101382.19;;;13.79;48.99
7524;BME280;3803;51.666;7.630;2024-02-21T05:31:06;101357.56;;;13.74;48.93
7524;BME280;3803;51.666;7.630;2024-02-21T05:32:25;101359.13;;;13.65;48.88
7524;BME280;3803;51.666;7.630;2024-02-21T05:43:50;101353.03;;;13.66;48.92
7524;BME280;3803;51.666;7.630;2024-02-21T05:44:36;101355.66;;;13.66;48.78
7524;BME280;3803;51.666;7.630;2024-02-21T05:44:57;101353.97;;;13.68;48.55
7524;BME280;3803;51.666;7.630;2024-02-21T05:45:20;101349.59;;;13.69;48.67
7524;BME280;3803;51.666;7.630;2024-02-21T05:46:00;101348.72;;;13.68;48.71
7524;BME280;3803;51.666;7.630;2024-02-21T05:46:37;101350.50;;;13.69;48.60
7524;BME280;3803;51.666;7.630;2024-02-21T05:52:00;101371.47;;;13.69;48.51
7524;BME280;3803;51.666;7.630;2024-02-21T05:52:57;101339.25;;;13.75;48.27
7524;BME280;3803;51.666;7.630;2024-02-21T05:53:21;101350.56;;;13.73;48.49
7524;BME280;3803;51.666;7.630;2024-02-21T05:53:42;101366.44;;;13.79;48.41
7524;BME280;3803;51.666;7.630;2024-02-21T05:54:03;101353.97;;;13.68;48.27
7524;BME280;3803;51.666;7.630;2024-02-21T05:54:24;101357.34;;;13.64;48.51
7524;BME280;3803;51.666;7.630;2024-02-21T05:55:22;101340.06;;;13.73;48.42
7524;BME280;3803;51.666;7.630;2024-02-21T05:55:49;101358.53;;;13.76;48.52
7524;BME280;3803;51.666;7.630;2024-02-21T05:56:27;101361.06;;;13.73;48.47
7524;BME280;3803;51.666;7.630;2024-02-21T05:57:16;101365.44;;;13.74;48.59
7524;BME280;3803;51.666;7.630;2024-02-21T05:58:11;101368.22;;;13.80;48.38
7524;BME280;3803;51.666;7.630;2024-02-21T05:58:47;101345.16;;;13.66;48.56
7524;BME280;3803;51.666;7.630;2024-02-21T05:59:08;101360.28;;;13.77;48.55
7524;BME280;3803;51.666;7.630;2024-02-21T05:59:44;101360.19;;;13.74;48.49
7524;BME280;3803;51.666;7.630;2024-02-21T06:00:06;101361.16;;;13.77;48.11
7524;BME280;3803;51.666;7.630;2024-02-21T06:00:45;101354.03;;;13.71;48.68
7524;BME280;3803;51.666;7.630;2024-02-21T06:02:08;101347.09;;;13.74;48.54
7524;BME280;3803;51.666;7.630;2024-02-21T06:02:31;101340.81;;;13.67;48.46
7524;BME280;3803;51.666;7.630;2024-02-21T06:02:52;101350.34;;;13.63;48.45
7524;BME280;3803;51.666;7.630;2024-02-21T06:03:59;101354.03;;;13.71;48.36
7524;BME280;3803;51.666;7.630;2024-02-21T06:13:18;101315.38;;;13.64;48.23
7524;BME280;3803;51.666;7.630;2024-02-21T06:13:46;101322.50;;;13.70;48.05
7524;BME280;3803;51.666;7.630;2024-02-21T06:14:15;101318.28;;;13.75;48.13
7524;BME280;3803;51.666;7.630;2024-02-21T06:14:41;101336.91;;;13.86;48.13
7524;BME280;3803;51.666;7.630;2024-02-21T06:15:02;101335.09;;;13.83;48.10
7524;BME280;3803;51.666;7.630;2024-02-21T06:15:35;101317.31;;;13.71;48.18
7524;BME280;3803;51.666;7.630;2024-02-21T06:16:14;101321.78;;;13.76;48.36
7524;BME280;3803;51.666;7.630;2024-02-21T06:16:38;101326.84;;;13.68;48.21
7524;BME280;3803;51.666;7.630;2024-02-21T06:22:30;101311.91;;;13.65;47.93
7524;BME280;3803;51.666;7.630;2024-02-21T06:23:26;101309.44;;;13.71;48.00
7524;BME280;3803;51.666;7.630;2024-02-21T06:23:47;101304.19;;;13.71;48.04
7524;BME280;3803;51.666;7.630;2024-02-21T06:24:26;101309.44;;;13.71;48.12
7524;BME280;3803;51.666;7.630;2024-02-21T06:25:00;101323.56;;;13.77;48.14
7524;BME280;3803;51.666;7.630;2024-02-21T06:25:30;101305.00;;;13.67;48.05
7524;BME280;3803;51.666;7.630;2024-02-21T06:26:53;101301.50;;;13.68;48.10
7524;BME280;3803;51.666;7.630;2024-02-21T06:29:28;101317.53;;;13.81;47.95
7524;BME280;3803;51.666;7.630;2024-02-21T06:30:24;101317.41;;;13.75;47.99
7524;BME280;3803;51.666;7.630;2024-02-21T06:32:19;101296.19;;;13.65;48.02
7524;BME280;3803;51.666;7.630;2024-02-21T06:33:18;101291.09;;;13.71;47.94
7524;BME280;3803;51.666;7.630;2024-02-21T06:33:59;101293.00;;;13.79;47.99
7524;BME280;3803;51.666;7.630;2024-02-21T06:38:53;101306.00;;;13.74;47.89
7524;BME280;3803;51.666;7.630;2024-02-21T06:39:42;101297.41;;;13.80;47.96
7524;BME280;3803;51.666;7.630;2024-02-21T06:40:34;101282.00;;;13.57;47.70
7524;BME280;3803;51.666;7.630;2024-02-21T06:41:32;101276.84;;;13.62;47.82
7524;BME280;3803;51.666;7.630;2024-02-21T06:42:25;101285.78;;;13.68;47.71
7524;BME280;3803;51.666;7.630;2024-02-21T06:42:58;101270.03;;;13.68;48.07
7524;BME280;3803;51.666;7.630;2024-02-21T06:44:49;101279.69;;;13.69;47.73
7524;BME280;3803;51.666;7.630;2024-02-21T06:45:18;101273.56;;;13.70;47.57
7524;BME280;3803;51.666;7.630;2024-02-21T06:46:07;101262.13;;;13.67;47.56
7524;BME280;3803;51.666;7.630;2024-02-21T06:46:59;101262.19;;;13.70;47.62
7524;BME280;3803;51.666;7.630;2024-02-21T06:47:20;101244.59;;;13.64;47.77
7524;BME280;3803;51.666;7.630;2024-02-21T06:47:56;101278.97;;;13.77;47.77
7524;BME280;3803;51.666;7.630;2024-02-21T06:52:33;101263.16;;;13.74;47.55
7524;BME280;3803;51.666;7.630;2024-02-21T06:53:01;101277.25;;;13.79;47.44
7524;BME280;3803;51.666;7.630;2024-02-21T06:53:30;101265.66;;;13.67;47.24
7524;BME280;3803;51.666;7.630;2024-02-21T06:54:12;101257.88;;;13.72;47.35
7524;BME280;3803;51.666;7.630;2024-02-21T06:54:44;101267.78;;;13.85;47.33
7524;BME280;3803;51.666;7.630;2024-02-21T06:55:11;101264.25;;;13.83;47.52
7524;BME280;3803;51.666;7.630;2024-02-21T07:04:28;101275.69;;;13.87;47.56
7524;BME280;3803;51.666;7.630;2024-02-21T07:05:08;101265.97;;;13.81;47.68
7524;BME280;3803;51.666;7.630;2024-02-21T07:05:32;101250.13;;;13.78;47.48
7524;BME280;3803;51.666;7.630;2024-02-21T07:05:55;101281.00;;;13.90;47.29
7524;BME280;3803;51.666;7.630;2024-02-21T07:06:16;101259.81;;;13.81;47.53
7524;BME280;3803;51.666;7.630;2024-02-21T07:06:40;101267.72;;;13.82;47.46
7524;BME280;3803;51.666;7.630;2024-02-21T07:11:30;101254.72;;;13.87;46.78
7524;BME280;3803;51.666;7.630;2024-02-21T07:12:09;101272.41;;;13.97;46.98
7524;BME280;3803;51.666;7.630;2024-02-21T07:12:55;101281.16;;;13.96;46.81
7524;BME280;3803;51.666;7.630;2024-02-21T07:13:15;101270.66;;;13.96;46.90
7524;BME280;3803;51.666;7.630;2024-02-21T07:13:38;101270.78;;;14.03;47.13
7524;BME280;3803;51.666;7.630;2024-02-21T07:14:11;101270.72;;;14.00;47.02
7524;BME280;3803;51.666;7.630;2024-02-21T07:14:35;101269.94;;;14.04;46.93
7524;BME280;3803;51.666;7.630;2024-02-21T07:14:59;101265.41;;;13.96;46.93
7524;BME280;3803;51.666;7.630;2024-02-21T07:15:22;101262.78;;;13.96;47.05
7524;BME280;3803;51.666;7.630;2024-02-21T07:15:53;101253.09;;;13.92;46.80
7524;BME280;3803;51.666;7.630;2024-02-21T07:16:17;101274.03;;;13.91;46.62
7524;BME280;3803;51.666;7.630;2024-02-21T07:16:40;101259.16;;;13.90;46.66